sensor_id;sensor_type;location;lat;lon;timestamp;temperature;humidity
10472;DHT22;5283;48.876;8.962;2024-01-16T00:01:12;-0.30;99.90
10472;DHT22;5283;48.876;8.962;2024-01-16T00:03:40;-0.40;99.90
10472;DHT22;5283;48.876;8.962;2024-01-16T00:06:07;-0.30;99.90
10472;DHT22;5283;48.876;8.962;2024-01-16T00:08:34;-0.40;99.90
10472;DHT22;5283;48.876;8.962;2024-01-16T00:11:02;-0.30;99.90
10472;DHT22;5283;48.876;8.962;2024-01-16T00:13:28;-0.40;99.90
10472;DHT22;5283;48.876;8.962;2024-01-16T00:15:56;-0.40;99.90
10472;DHT22;5283;48.876;8.962;2024-01-16T00:18:25;-0.40;99.90
10472;DHT22;5283;48.876;8.962;2024-01-16T00:20:52;-0.40;99.90
10472;DHT22;5283;48.876;8.962;2024-01-16T00:23:19;-0.50;99.90
10472;DHT22;5283;48.876;8.962;2024-01-16T00:25:45;-0.40;99.90
10472;DHT22;5283;48.876;8.962;2024-01-16T00:28:12;-0.50;99.90
10472;DHT22;5283;48.876;8.962;2024-01-16T00:30:39;-0.50;99.90
10472;DHT22;5283;48.876;8.962;2024-01-16T00:33:06;-0.40;99.90
10472;DHT22;5283;48.876;8.962;2024-01-16T00:35:33;-0.40;99.90
10472;DHT22;5283;48.876;8.962;2024-01-16T00:37:59;-0.50;99.90
10472;DHT22;5283;48.876;8.962;2024-01-16T00:40:26;-0.50;99.90
10472;DHT22;5283;48.876;8.962;2024-01-16T00:42:53;-0.40;99.90
10472;DHT22;5283;48.876;8.962;2024-01-16T00:45:20;-0.50;99.90
10472;DHT22;5283;48.876;8.962;2024-01-16T00:47:48;-0.50;99.90
10472;DHT22;5283;48.876;8.962;2024-01-16T00:50:14;-0.50;99.90
10472;DHT22;5283;48.876;8.962;2024-01-16T00:52:41;-0.50;99.90
10472;DHT22;5283;48.876;8.962;2024-01-16T00:55:08;-0.50;99.90
10472;DHT22;5283;48.876;8.962;2024-01-16T00:57:34;-0.50;99.90
10472;DHT22;5283;48.876;8.962;2024-01-16T01:00:01;-0.50;99.90
10472;DHT22;5283;48.876;8.962;2024-01-16T01:02:30;-0.50;99.90
10472;DHT22;5283;48.876;8.962;2024-01-16T01:04:57;-0.50;99.90
10472;DHT22;5283;48.876;8.962;2024-01-16T01:07:23;-0.50;99.90
10472;DHT22;5283;48.876;8.962;2024-01-16T01:09:51;-0.50;99.90
10472;DHT22;5283;48.876;8.962;2024-01-16T01:12:18;-0.50;99.90
10472;DHT22;5283;48.876;8.962;2024-01-16T01:14:45;-0.50;99.90
10472;DHT22;5283;48.876;8.962;2024-01-16T01:17:12;-0.50;99.90
10472;DHT22;5283;48.876;8.962;2024-01-16T01:19:39;-0.50;99.90
10472;DHT22;5283;48.876;8.962;2024-01-16T01:22:06;-0.50;99.90
10472;DHT22;5283;48.876;8.962;2024-01-16T01:24:32;-0.60;99.90
10472;DHT22;5283;48.876;8.962;2024-01-16T01:26:59;-0.60;99.90
10472;DHT22;5283;48.876;8.962;2024-01-16T01:29:25;-0.60;99.90
10472;DHT22;5283;48.876;8.962;2024-01-16T01:31:52;-0.60;99.90
10472;DHT22;5283;48.876;8.962;2024-01-16T01:34:19;-0.60;99.90
10472;DHT22;5283;48.876;8.962;2024-01-16T01:36:46;-0.70;99.90
10472;DHT22;5283;48.876;8.962;2024-01-16T01:39:12;-0.70;99.90
10472;DHT22;5283;48.876;8.962;2024-01-16T01:41:39;-0.70;99.90
10472;DHT22;5283;48.876;8.962;2024-01-16T01:44:06;-0.80;99.90
10472;DHT22;5283;48.876;8.962;2024-01-16T01:46:33;-0.80;99.90
10472;DHT22;5283;48.876;8.962;2024-01-16T01:49:01;-0.80;99.90
10472;DHT22;5283;48.876;8.962;2024-01-16T01:51:29;-0.90;99.90
10472;DHT22;5283;48.876;8.962;2024-01-16T01:53:56;-0.90;99.90
10472;DHT22;5283;48.876;8.962;2024-01-16T01:56:25;-1.00;99.90
10472;DHT22;5283;48.876;8.962;2024-01-16T01:58:56;-1.00;99.90
10472;DHT22;5283;48.876;8.962;2024-01-16T02:01:24;-0.90;99.90
10472;DHT22;5283;48.876;8.962;2024-01-16T02:03:52;-1.00;99.90
10472;DHT22;5283;48.876;8.962;2024-01-16T02:06:21;-0.90;99.90
10472;DHT22;5283;48.876;8.962;2024-01-16T02:08:48;-0.90;99.90
10472;DHT22;5283;48.876;8.962;2024-01-16T02:11:15;-0.80;99.90
10472;DHT22;5283;48.876;8.962;2024-01-16T02:13:42;-0.80;99.90
10472;DHT22;5283;48.876;8.962;2024-01-16T02:16:22;-0.80;99.90
10472;DHT22;5283;48.876;8.962;2024-01-16T02:18:49;-0.90;99.90
10472;DHT22;5283;48.876;8.962;2024-01-16T02:21:20;-0.90;99.90
10472;DHT22;5283;48.876;8.962;2024-01-16T02:23:48;-1.00;99.90
10472;DHT22;5283;48.876;8.962;2024-01-16T02:26:15;-1.10;99.90
10472;DHT22;5283;48.876;8.962;2024-01-16T02:28:42;-1.50;99.90
10472;DHT22;5283;48.876;8.962;2024-01-16T02:31:09;-1.90;99.90
10472;DHT22;5283;48.876;8.962;2024-01-16T02:33:35;-2.10;99.90
10472;DHT22;5283;48.876;8.962;2024-01-16T02:36:02;-2.10;99.90
10472;DHT22;5283;48.876;8.962;2024-01-16T02:38:29;-2.20;99.90
10472;DHT22;5283;48.876;8.962;2024-01-16T02:40:56;-2.50;99.90
10472;DHT22;5283;48.876;8.962;2024-01-16T02:43:23;-2.60;99.90
10472;DHT22;5283;48.876;8.962;2024-01-16T02:45:52;-2.70;99.90
10472;DHT22;5283;48.876;8.962;2024-01-16T02:48:19;-2.70;99.90
10472;DHT22;5283;48.876;8.962;2024-01-16T02:50:47;-2.90;99.90
10472;DHT22;5283;48.876;8.962;2024-01-16T02:53:14;-3.00;99.90
10472;DHT22;5283;48.876;8.962;2024-01-16T02:55:40;-3.10;99.90
10472;DHT22;5283;48.876;8.962;2024-01-16T02:58:07;-3.20;99.90
10472;DHT22;5283;48.876;8.962;2024-01-16T03:00:34;-3.40;99.90
10472;DHT22;5283;48.876;8.962;2024-01-16T03:03:00;-3.40;99.90
10472;DHT22;5283;48.876;8.962;2024-01-16T03:05:27;-3.50;99.90
10472;DHT22;5283;48.876;8.962;2024-01-16T03:07:55;-3.60;99.90
10472;DHT22;5283;48.876;8.962;2024-01-16T03:10:21;-3.80;99.90
10472;DHT22;5283;48.876;8.962;2024-01-16T03:12:48;-4.00;99.90
10472;DHT22;5283;48.876;8.962;2024-01-16T03:15:15;-4.20;99.90
10472;DHT22;5283;48.876;8.962;2024-01-16T03:17:41;-4.00;99.90
10472;DHT22;5283;48.876;8.962;2024-01-16T03:20:08;-4.00;99.90
10472;DHT22;5283;48.876;8.962;2024-01-16T03:22:35;-4.20;99.90
10472;DHT22;5283;48.876;8.962;2024-01-16T03:25:02;-4.40;99.90
10472;DHT22;5283;48.876;8.962;2024-01-16T03:27:29;-4.30;99.90
10472;DHT22;5283;48.876;8.962;2024-01-16T03:29:55;-4.40;99.90
10472;DHT22;5283;48.876;8.962;2024-01-16T03:32:22;-4.70;99.90
10472;DHT22;5283;48.876;8.962;2024-01-16T03:34:49;-5.00;99.90
10472;DHT22;5283;48.876;8.962;2024-01-16T03:37:16;-5.20;99.90
10472;DHT22;5283;48.876;8.962;2024-01-16T03:39:43;-5.10;99.90
10472;DHT22;5283;48.876;8.962;2024-01-16T03:42:11;-5.10;99.90
10472;DHT22;5283;48.876;8.962;2024-01-16T03:44:41;-5.20;99.90
10472;DHT22;5283;48.876;8.962;2024-01-16T03:47:08;-5.30;99.90
10472;DHT22;5283;48.876;8.962;2024-01-16T03:49:35;-5.40;99.90
10472;DHT22;5283;48.876;8.962;2024-01-16T03:52:02;-5.60;99.90
10472;DHT22;5283;48.876;8.962;2024-01-16T03:54:29;-5.60;99.90
10472;DHT22;5283;48.876;8.962;2024-01-16T03:56:56;-5.80;99.90
10472;DHT22;5283;48.876;8.962;2024-01-16T03:59:22;-6.00;99.90
10472;DHT22;5283;48.876;8.962;2024-01-16T04:01:49;-6.10;99.90
10472;DHT22;5283;48.876;8.962;2024-01-16T04:04:16;-6.10;99.90
10472;DHT22;5283;48.876;8.962;2024-01-16T04:06:43;-5.90;99.90
10472;DHT22;5283;48.876;8.962;2024-01-16T04:09:09;-5.70;99.90
10472;DHT22;5283;48.876;8.962;2024-01-16T04:11:36;-5.60;99.90
10472;DHT22;5283;48.876;8.962;2024-01-16T04:14:03;-5.60;99.90
10472;DHT22;5283;48.876;8.962;2024-01-16T04:16:30;-5.80;99.90
10472;DHT22;5283;48.876;8.962;2024-01-16T04:18:57;-5.90;99.90
10472;DHT22;5283;48.876;8.962;2024-01-16T04:21:23;-6.00;99.90
10472;DHT22;5283;48.876;8.962;2024-01-16T04:23:50;-6.20;99.90
10472;DHT22;5283;48.876;8.962;2024-01-16T04:26:17;-6.30;99.90
10472;DHT22;5283;48.876;8.962;2024-01-16T04:28:43;-6.50;99.90
10472;DHT22;5283;48.876;8.962;2024-01-16T04:31:10;-6.70;99.90
10472;DHT22;5283;48.876;8.962;2024-01-16T04:33:40;-6.60;99.90
10472;DHT22;5283;48.876;8.962;2024-01-16T04:36:07;-6.60;99.90
10472;DHT22;5283;48.876;8.962;2024-01-16T04:38:33;-6.40;99.90
10472;DHT22;5283;48.876;8.962;2024-01-16T04:41:03;-6.40;99.90
10472;DHT22;5283;48.876;8.962;2024-01-16T04:43:30;-6.50;99.90
10472;DHT22;5283;48.876;8.962;2024-01-16T04:45:57;-6.60;99.90
10472;DHT22;5283;48.876;8.962;2024-01-16T04:48:25;-6.70;99.90
10472;DHT22;5283;48.876;8.962;2024-01-16T04:50:51;-6.70;99.90
10472;DHT22;5283;48.876;8.962;2024-01-16T04:53:18;-6.60;99.90
10472;DHT22;5283;48.876;8.962;2024-01-16T04:55:45;-6.60;99.90
10472;DHT22;5283;48.876;8.962;2024-01-16T04:58:12;-6.60;99.90
10472;DHT22;5283;48.876;8.962;2024-01-16T05:00:38;-6.70;99.90
10472;DHT22;5283;48.876;8.962;2024-01-16T05:03:05;-6.90;99.90
10472;DHT22;5283;48.876;8.962;2024-01-16T05:05:32;-7.10;99.90
10472;DHT22;5283;48.876;8.962;2024-01-16T05:08:01;-7.20;99.90
10472;DHT22;5283;48.876;8.962;2024-01-16T05:10:28;-7.30;99.90
10472;DHT22;5283;48.876;8.962;2024-01-16T05:12:55;-7.30;99.90
10472;DHT22;5283;48.876;8.962;2024-01-16T05:15:21;-7.30;99.90
10472;DHT22;5283;48.876;8.962;2024-01-16T05:17:48;-7.30;99.90
10472;DHT22;5283;48.876;8.962;2024-01-16T05:20:15;-7.20;99.90
10472;DHT22;5283;48.876;8.962;2024-01-16T05:22:42;-7.10;99.90
10472;DHT22;5283;48.876;8.962;2024-01-16T05:25:08;-7.10;99.90
10472;DHT22;5283;48.876;8.962;2024-01-16T05:27:35;-7.10;99.90
10472;DHT22;5283;48.876;8.962;2024-01-16T05:30:02;-7.00;99.90
10472;DHT22;5283;48.876;8.962;2024-01-16T05:32:29;-7.00;99.90
10472;DHT22;5283;48.876;8.962;2024-01-16T05:34:56;-6.70;99.90
10472;DHT22;5283;48.876;8.962;2024-01-16T05:37:23;-6.70;99.90
10472;DHT22;5283;48.876;8.962;2024-01-16T05:39:49;-6.70;99.90
10472;DHT22;5283;48.876;8.962;2024-01-16T05:42:16;-6.60;99.90
10472;DHT22;5283;48.876;8.962;2024-01-16T05:44:44;-6.50;99.90
10472;DHT22;5283;48.876;8.962;2024-01-16T05:47:10;-6.30;99.90
10472;DHT22;5283;48.876;8.962;2024-01-16T05:49:37;-6.30;99.90
10472;DHT22;5283;48.876;8.962;2024-01-16T05:52:04;-6.10;99.90
10472;DHT22;5283;48.876;8.962;2024-01-16T05:54:31;-6.00;99.90
10472;DHT22;5283;48.876;8.962;2024-01-16T05:56:58;-6.10;99.90
10472;DHT22;5283;48.876;8.962;2024-01-16T05:59:25;-6.10;99.90
10472;DHT22;5283;48.876;8.962;2024-01-16T06:01:52;-6.10;99.90
10472;DHT22;5283;48.876;8.962;2024-01-16T06:04:18;-6.00;99.90
10472;DHT22;5283;48.876;8.962;2024-01-16T06:06:45;-5.90;99.90
10472;DHT22;5283;48.876;8.962;2024-01-16T06:09:14;-5.90;99.90
10472;DHT22;5283;48.876;8.962;2024-01-16T06:11:41;-5.80;99.90
10472;DHT22;5283;48.876;8.962;2024-01-16T06:14:08;-5.80;99.90
10472;DHT22;5283;48.876;8.962;2024-01-16T06:16:35;-5.70;99.90
10472;DHT22;5283;48.876;8.962;2024-01-16T06:19:02;-5.60;99.90
10472;DHT22;5283;48.876;8.962;2024-01-16T06:21:28;-5.60;99.90
10472;DHT22;5283;48.876;8.962;2024-01-16T06:23:55;-5.60;99.90
10472;DHT22;5283;48.876;8.962;2024-01-16T06:26:22;-5.50;99.90
10472;DHT22;5283;48.876;8.962;2024-01-16T06:28:49;-5.50;99.90
10472;DHT22;5283;48.876;8.962;2024-01-16T06:31:16;-5.50;99.90
10472;DHT22;5283;48.876;8.962;2024-01-16T06:33:43;-5.60;99.90
10472;DHT22;5283;48.876;8.962;2024-01-16T06:36:10;-5.70;99.90
10472;DHT22;5283;48.876;8.962;2024-01-16T06:38:38;-5.80;99.90
10472;DHT22;5283;48.876;8.962;2024-01-16T06:41:06;-5.90;99.90
10472;DHT22;5283;48.876;8.962;2024-01-16T06:43:33;-5.80;99.90
10472;DHT22;5283;48.876;8.962;2024-01-16T06:45:59;-5.70;99.90
10472;DHT22;5283;48.876;8.962;2024-01-16T06:48:26;-5.70;99.90
10472;DHT22;5283;48.876;8.962;2024-01-16T06:50:53;-5.60;99.90
10472;DHT22;5283;48.876;8.962;2024-01-16T06:53:20;-5.60;99.90
10472;DHT22;5283;48.876;8.962;2024-01-16T06:55:47;-5.50;99.90
10472;DHT22;5283;48.876;8.962;2024-01-16T06:58:14;-5.40;99.90
10472;DHT22;5283;48.876;8.962;2024-01-16T07:00:41;-5.30;99.90
10472;DHT22;5283;48.876;8.962;2024-01-16T07:03:11;-4.80;99.90
10472;DHT22;5283;48.876;8.962;2024-01-16T07:05:38;-4.60;99.90
10472;DHT22;5283;48.876;8.962;2024-01-16T07:08:05;-4.50;99.90
10472;DHT22;5283;48.876;8.962;2024-01-16T07:10:31;-4.40;99.90
10472;DHT22;5283;48.876;8.962;2024-01-16T07:12:58;-4.30;99.90
10472;DHT22;5283;48.876;8.962;2024-01-16T07:15:25;-4.30;99.90
10472;DHT22;5283;48.876;8.962;2024-01-16T07:17:52;-4.20;99.90
10472;DHT22;5283;48.876;8.962;2024-01-16T07:20:19;-4.00;99.90
10472;DHT22;5283;48.876;8.962;2024-01-16T07:22:46;-3.90;99.90
10472;DHT22;5283;48.876;8.962;2024-01-16T07:25:13;-3.80;99.90
10472;DHT22;5283;48.876;8.962;2024-01-16T07:27:40;-3.80;99.90
10472;DHT22;5283;48.876;8.962;2024-01-16T07:30:09;-3.80;99.90
10472;DHT22;5283;48.876;8.962;2024-01-16T07:32:36;-3.80;99.90
10472;DHT22;5283;48.876;8.962;2024-01-16T07:35:03;-3.80;99.90
10472;DHT22;5283;48.876;8.962;2024-01-16T07:37:32;-3.90;99.90
10472;DHT22;5283;48.876;8.962;2024-01-16T07:39:59;-3.90;99.90
10472;DHT22;5283;48.876;8.962;2024-01-16T07:42:25;-3.90;99.90
10472;DHT22;5283;48.876;8.962;2024-01-16T07:44:52;-3.80;99.90
10472;DHT22;5283;48.876;8.962;2024-01-16T07:47:19;-3.70;99.90
10472;DHT22;5283;48.876;8.962;2024-01-16T07:49:47;-3.70;99.90
10472;DHT22;5283;48.876;8.962;2024-01-16T07:52:13;-3.60;99.90
10472;DHT22;5283;48.876;8.962;2024-01-16T07:54:40;-3.60;99.90
10472;DHT22;5283;48.876;8.962;2024-01-16T07:57:07;-3.60;99.90
10472;DHT22;5283;48.876;8.962;2024-01-16T07:59:33;-3.50;99.90
10472;DHT22;5283;48.876;8.962;2024-01-16T08:02:00;-3.40;99.90
10472;DHT22;5283;48.876;8.962;2024-01-16T08:04:27;-3.40;99.90
10472;DHT22;5283;48.876;8.962;2024-01-16T08:06:55;-3.30;99.90
10472;DHT22;5283;48.876;8.962;2024-01-16T08:09:21;-3.20;99.90
10472;DHT22;5283;48.876;8.962;2024-01-16T08:11:48;-3.10;99.90
10472;DHT22;5283;48.876;8.962;2024-01-16T08:14:15;-3.10;99.90
10472;DHT22;5283;48.876;8.962;2024-01-16T08:16:41;-3.00;99.90
10472;DHT22;5283;48.876;8.962;2024-01-16T08:19:08;-2.90;99.90
10472;DHT22;5283;48.876;8.962;2024-01-16T08:21:35;-2.80;99.90
10472;DHT22;5283;48.876;8.962;2024-01-16T08:24:02;-2.70;99.90
10472;DHT22;5283;48.876;8.962;2024-01-16T08:26:29;-2.60;99.90
10472;DHT22;5283;48.876;8.962;2024-01-16T08:28:57;-2.50;99.90
10472;DHT22;5283;48.876;8.962;2024-01-16T08:31:24;-2.40;99.90
10472;DHT22;5283;48.876;8.962;2024-01-16T08:33:50;-2.30;99.90
10472;DHT22;5283;48.876;8.962;2024-01-16T08:36:17;-2.20;99.90
10472;DHT22;5283;48.876;8.962;2024-01-16T08:38:44;-2.20;99.90
10472;DHT22;5283;48.876;8.962;2024-01-16T08:41:11;-2.10;99.90
10472;DHT22;5283;48.876;8.962;2024-01-16T08:43:38;-2.10;99.90
10472;DHT22;5283;48.876;8.962;2024-01-16T08:46:04;-2.00;99.90
10472;DHT22;5283;48.876;8.962;2024-01-16T08:48:31;-2.00;99.90
10472;DHT22;5283;48.876;8.962;2024-01-16T08:50:58;-2.00;99.90
10472;DHT22;5283;48.876;8.962;2024-01-16T08:53:27;-1.90;99.90
10472;DHT22;5283;48.876;8.962;2024-01-16T08:55:54;-1.80;99.90
10472;DHT22;5283;48.876;8.962;2024-01-16T08:58:21;-1.70;99.90
10472;DHT22;5283;48.876;8.962;2024-01-16T09:00:47;-1.70;99.90
10472;DHT22;5283;48.876;8.962;2024-01-16T09:03:14;-1.50;99.90
10472;DHT22;5283;48.876;8.962;2024-01-16T09:05:41;-1.50;99.90
10472;DHT22;5283;48.876;8.962;2024-01-16T09:08:09;-1.30;99.90
10472;DHT22;5283;48.876;8.962;2024-01-16T09:10:37;-1.20;99.90
10472;DHT22;5283;48.876;8.962;2024-01-16T09:13:03;-1.10;99.90
10472;DHT22;5283;48.876;8.962;2024-01-16T09:15:30;-1.10;99.90
10472;DHT22;5283;48.876;8.962;2024-01-16T09:17:57;-1.00;99.90
10472;DHT22;5283;48.876;8.962;2024-01-16T09:20:23;-0.90;99.90
10472;DHT22;5283;48.876;8.962;2024-01-16T09:22:50;-0.90;99.90
10472;DHT22;5283;48.876;8.962;2024-01-16T09:25:17;-0.90;99.90
10472;DHT22;5283;48.876;8.962;2024-01-16T09:27:43;-0.90;99.90
10472;DHT22;5283;48.876;8.962;2024-01-16T09:30:10;-0.90;99.90
10472;DHT22;5283;48.876;8.962;2024-01-16T09:32:39;-0.70;99.90
10472;DHT22;5283;48.876;8.962;2024-01-16T09:35:05;-0.70;99.90
10472;DHT22;5283;48.876;8.962;2024-01-16T09:37:35;-0.50;99.90
10472;DHT22;5283;48.876;8.962;2024-01-16T09:40:02;-0.40;99.90
10472;DHT22;5283;48.876;8.962;2024-01-16T09:42:31;-0.30;99.90
10472;DHT22;5283;48.876;8.962;2024-01-16T09:45:00;-0.20;99.90
10472;DHT22;5283;48.876;8.962;2024-01-16T09:47:30;0.00;99.90
10472;DHT22;5283;48.876;8.962;2024-01-16T09:49:59;0.10;99.90
10472;DHT22;5283;48.876;8.962;2024-01-16T09:52:29;0.40;99.90
10472;DHT22;5283;48.876;8.962;2024-01-16T09:54:56;0.60;99.90
10472;DHT22;5283;48.876;8.962;2024-01-16T09:57:25;0.60;99.90
10472;DHT22;5283;48.876;8.962;2024-01-16T09:59:52;0.60;99.90
10472;DHT22;5283;48.876;8.962;2024-01-16T10:02:19;0.80;99.90
10472;DHT22;5283;48.876;8.962;2024-01-16T10:04:47;0.90;99.90
10472;DHT22;5283;48.876;8.962;2024-01-16T10:07:16;1.00;99.90
10472;DHT22;5283;48.876;8.962;2024-01-16T10:09:43;1.20;99.90
10472;DHT22;5283;48.876;8.962;2024-01-16T10:12:10;1.30;99.90
10472;DHT22;5283;48.876;8.962;2024-01-16T10:14:38;1.50;99.90
10472;DHT22;5283;48.876;8.962;2024-01-16T10:17:05;1.70;99.90
10472;DHT22;5283;48.876;8.962;2024-01-16T10:19:32;1.80;99.90
10472;DHT22;5283;48.876;8.962;2024-01-16T10:22:05;1.90;99.90
10472;DHT22;5283;48.876;8.962;2024-01-16T10:24:33;2.00;99.90
10472;DHT22;5283;48.876;8.962;2024-01-16T10:27:02;1.50;99.90
10472;DHT22;5283;48.876;8.962;2024-01-16T10:29:32;1.50;99.90
10472;DHT22;5283;48.876;8.962;2024-01-16T10:32:01;1.50;99.90
10472;DHT22;5283;48.876;8.962;2024-01-16T10:34:28;1.70;99.90
10472;DHT22;5283;48.876;8.962;2024-01-16T10:37:01;1.70;99.90
10472;DHT22;5283;48.876;8.962;2024-01-16T10:39:27;1.70;99.90
10472;DHT22;5283;48.876;8.962;2024-01-16T10:41:57;1.90;99.90
10472;DHT22;5283;48.876;8.962;2024-01-16T10:44:25;1.80;99.90
10472;DHT22;5283;48.876;8.962;2024-01-16T10:47:14;1.60;99.90
10472;DHT22;5283;48.876;8.962;2024-01-16T10:49:42;1.50;99.90
10472;DHT22;5283;48.876;8.962;2024-01-16T10:52:12;1.70;99.90
10472;DHT22;5283;48.876;8.962;2024-01-16T10:54:41;1.70;99.90
10472;DHT22;5283;48.876;8.962;2024-01-16T10:57:08;1.60;99.90
10472;DHT22;5283;48.876;8.962;2024-01-16T10:59:42;1.60;99.90
10472;DHT22;5283;48.876;8.962;2024-01-16T11:02:15;1.70;99.90
10472;DHT22;5283;48.876;8.962;2024-01-16T11:04:45;1.80;99.90
10472;DHT22;5283;48.876;8.962;2024-01-16T11:07:13;1.60;99.90
10472;DHT22;5283;48.876;8.962;2024-01-16T11:09:41;1.60;99.90
10472;DHT22;5283;48.876;8.962;2024-01-16T11:12:08;1.50;99.90
10472;DHT22;5283;48.876;8.962;2024-01-16T11:14:37;1.50;99.90
10472;DHT22;5283;48.876;8.962;2024-01-16T11:17:05;1.40;99.90
10472;DHT22;5283;48.876;8.962;2024-01-16T11:19:33;1.60;99.90
10472;DHT22;5283;48.876;8.962;2024-01-16T11:22:03;1.60;99.90
10472;DHT22;5283;48.876;8.962;2024-01-16T11:24:31;1.60;99.90
10472;DHT22;5283;48.876;8.962;2024-01-16T11:26:58;1.70;99.90
10472;DHT22;5283;48.876;8.962;2024-01-16T11:31:55;2.00;99.90
10472;DHT22;5283;48.876;8.962;2024-01-16T11:37:09;2.30;99.90
10472;DHT22;5283;48.876;8.962;2024-01-16T11:39:36;2.40;99.90
10472;DHT22;5283;48.876;8.962;2024-01-16T11:42:03;2.50;99.90
10472;DHT22;5283;48.876;8.962;2024-01-16T11:44:50;2.70;99.90
10472;DHT22;5283;48.876;8.962;2024-01-16T11:47:18;2.80;99.90
10472;DHT22;5283;48.876;8.962;2024-01-16T11:52:44;2.90;99.90
10472;DHT22;5283;48.876;8.962;2024-01-16T11:55:34;2.40;99.90
10472;DHT22;5283;48.876;8.962;2024-01-16T12:00:58;2.20;99.90
10472;DHT22;5283;48.876;8.962;2024-01-16T12:03:26;2.50;99.90
10472;DHT22;5283;48.876;8.962;2024-01-16T12:05:58;2.60;99.90
10472;DHT22;5283;48.876;8.962;2024-01-16T12:08:26;2.70;99.90
10472;DHT22;5283;48.876;8.962;2024-01-16T12:10:53;2.70;99.90
10472;DHT22;5283;48.876;8.962;2024-01-16T12:13:20;2.70;99.90
10472;DHT22;5283;48.876;8.962;2024-01-16T12:15:47;2.70;99.90
10472;DHT22;5283;48.876;8.962;2024-01-16T12:18:20;2.60;99.90
10472;DHT22;5283;48.876;8.962;2024-01-16T12:20:49;2.60;99.90
10472;DHT22;5283;48.876;8.962;2024-01-16T12:23:16;2.40;99.90
10472;DHT22;5283;48.876;8.962;2024-01-16T12:25:43;2.40;99.90
10472;DHT22;5283;48.876;8.962;2024-01-16T12:28:09;2.40;99.90
10472;DHT22;5283;48.876;8.962;2024-01-16T12:30:38;2.20;99.90
10472;DHT22;5283;48.876;8.962;2024-01-16T12:33:12;2.10;99.90
10472;DHT22;5283;48.876;8.962;2024-01-16T12:35:43;2.10;99.90
10472;DHT22;5283;48.876;8.962;2024-01-16T12:38:12;2.10;99.90
10472;DHT22;5283;48.876;8.962;2024-01-16T12:40:50;2.10;99.90
10472;DHT22;5283;48.876;8.962;2024-01-16T12:43:18;2.00;99.90
10472;DHT22;5283;48.876;8.962;2024-01-16T12:45:45;2.00;99.90
10472;DHT22;5283;48.876;8.962;2024-01-16T12:48:12;1.90;99.90
10472;DHT22;5283;48.876;8.962;2024-01-16T12:50:39;1.90;99.90
10472;DHT22;5283;48.876;8.962;2024-01-16T12:53:10;1.90;99.90
10472;DHT22;5283;48.876;8.962;2024-01-16T12:55:39;1.80;99.90
10472;DHT22;5283;48.876;8.962;2024-01-16T12:58:20;1.80;99.90
10472;DHT22;5283;48.876;8.962;2024-01-16T13:00:50;1.80;99.90
10472;DHT22;5283;48.876;8.962;2024-01-16T13:03:19;1.80;99.90
10472;DHT22;5283;48.876;8.962;2024-01-16T13:06:00;1.80;99.90
10472;DHT22;5283;48.876;8.962;2024-01-16T13:08:27;1.90;99.90
10472;DHT22;5283;48.876;8.962;2024-01-16T13:11:02;1.80;99.90
10472;DHT22;5283;48.876;8.962;2024-01-16T13:13:30;1.80;99.90
10472;DHT22;5283;48.876;8.962;2024-01-16T13:15:57;1.80;99.90
10472;DHT22;5283;48.876;8.962;2024-01-16T13:18:27;1.70;99.90
10472;DHT22;5283;48.876;8.962;2024-01-16T13:20:55;1.70;99.90
10472;DHT22;5283;48.876;8.962;2024-01-16T13:23:24;1.70;99.90
10472;DHT22;5283;48.876;8.962;2024-01-16T13:25:55;1.80;99.90
10472;DHT22;5283;48.876;8.962;2024-01-16T13:28:30;1.80;99.90
10472;DHT22;5283;48.876;8.962;2024-01-16T13:30:57;1.70;99.90
10472;DHT22;5283;48.876;8.962;2024-01-16T13:33:24;1.80;99.90
10472;DHT22;5283;48.876;8.962;2024-01-16T13:35:54;1.80;99.90
10472;DHT22;5283;48.876;8.962;2024-01-16T13:38:21;1.90;99.90
10472;DHT22;5283;48.876;8.962;2024-01-16T13:40:48;1.90;99.90
10472;DHT22;5283;48.876;8.962;2024-01-16T13:43:17;1.90;99.90
10472;DHT22;5283;48.876;8.962;2024-01-16T13:45:43;2.00;99.90
10472;DHT22;5283;48.876;8.962;2024-01-16T13:48:10;2.10;99.90
10472;DHT22;5283;48.876;8.962;2024-01-16T13:50:37;2.00;99.90
10472;DHT22;5283;48.876;8.962;2024-01-16T13:53:04;1.90;99.90
10472;DHT22;5283;48.876;8.962;2024-01-16T13:55:31;1.80;99.90
10472;DHT22;5283;48.876;8.962;2024-01-16T13:58:01;1.80;99.90
10472;DHT22;5283;48.876;8.962;2024-01-16T14:00:28;1.70;99.90
10472;DHT22;5283;48.876;8.962;2024-01-16T14:02:55;1.60;99.90
10472;DHT22;5283;48.876;8.962;2024-01-16T14:05:21;1.60;99.90
10472;DHT22;5283;48.876;8.962;2024-01-16T14:07:50;1.70;99.90
10472;DHT22;5283;48.876;8.962;2024-01-16T14:10:18;1.60;99.90
10472;DHT22;5283;48.876;8.962;2024-01-16T14:12:47;1.60;99.90
10472;DHT22;5283;48.876;8.962;2024-01-16T14:15:15;1.50;99.90
10472;DHT22;5283;48.876;8.962;2024-01-16T14:17:47;1.50;99.90
10472;DHT22;5283;48.876;8.962;2024-01-16T14:20:15;1.50;99.90
10472;DHT22;5283;48.876;8.962;2024-01-16T14:22:42;1.40;99.90
10472;DHT22;5283;48.876;8.962;2024-01-16T14:25:13;1.30;99.90
10472;DHT22;5283;48.876;8.962;2024-01-16T14:27:42;1.20;99.90
10472;DHT22;5283;48.876;8.962;2024-01-16T14:30:14;1.10;99.90
10472;DHT22;5283;48.876;8.962;2024-01-16T14:32:42;1.00;99.90
10472;DHT22;5283;48.876;8.962;2024-01-16T14:35:12;0.90;99.90
10472;DHT22;5283;48.876;8.962;2024-01-16T14:37:40;0.90;99.90
10472;DHT22;5283;48.876;8.962;2024-01-16T14:40:10;0.90;99.90
10472;DHT22;5283;48.876;8.962;2024-01-16T14:42:39;0.80;99.90
10472;DHT22;5283;48.876;8.962;2024-01-16T14:45:07;0.60;99.90
10472;DHT22;5283;48.876;8.962;2024-01-16T14:47:34;0.60;99.90
10472;DHT22;5283;48.876;8.962;2024-01-16T14:50:01;0.60;99.90
10472;DHT22;5283;48.876;8.962;2024-01-16T14:52:30;0.50;99.90
10472;DHT22;5283;48.876;8.962;2024-01-16T14:55:01;0.40;99.90
10472;DHT22;5283;48.876;8.962;2024-01-16T14:57:28;0.30;99.90
10472;DHT22;5283;48.876;8.962;2024-01-16T14:59:57;0.20;99.90
10472;DHT22;5283;48.876;8.962;2024-01-16T15:02:24;0.10;99.90
10472;DHT22;5283;48.876;8.962;2024-01-16T15:04:51;0.00;99.90
10472;DHT22;5283;48.876;8.962;2024-01-16T15:07:18;-0.20;99.90
10472;DHT22;5283;48.876;8.962;2024-01-16T15:09:44;-0.30;99.90
10472;DHT22;5283;48.876;8.962;2024-01-16T15:12:12;-0.50;99.90
10472;DHT22;5283;48.876;8.962;2024-01-16T15:14:40;-0.70;99.90
10472;DHT22;5283;48.876;8.962;2024-01-16T15:17:06;-0.90;99.90
10472;DHT22;5283;48.876;8.962;2024-01-16T15:19:33;-1.10;99.90
10472;DHT22;5283;48.876;8.962;2024-01-16T15:22:00;-1.20;99.90
10472;DHT22;5283;48.876;8.962;2024-01-16T15:24:27;-1.30;99.90
10472;DHT22;5283;48.876;8.962;2024-01-16T15:26:55;-1.30;99.90
10472;DHT22;5283;48.876;8.962;2024-01-16T15:29:23;-1.50;99.90
10472;DHT22;5283;48.876;8.962;2024-01-16T15:31:50;-1.60;99.90
10472;DHT22;5283;48.876;8.962;2024-01-16T15:34:19;-1.70;99.90
10472;DHT22;5283;48.876;8.962;2024-01-16T15:36:46;-1.90;99.90
10472;DHT22;5283;48.876;8.962;2024-01-16T15:39:13;-1.90;99.90
10472;DHT22;5283;48.876;8.962;2024-01-16T15:41:44;-2.00;99.90
10472;DHT22;5283;48.876;8.962;2024-01-16T15:44:11;-2.10;99.90
10472;DHT22;5283;48.876;8.962;2024-01-16T15:47:01;-2.40;99.90
10472;DHT22;5283;48.876;8.962;2024-01-16T15:49:29;-2.50;99.90
10472;DHT22;5283;48.876;8.962;2024-01-16T15:51:59;-2.70;99.90
10472;DHT22;5283;48.876;8.962;2024-01-16T15:54:26;-2.90;99.90
10472;DHT22;5283;48.876;8.962;2024-01-16T15:56:53;-3.20;99.90
10472;DHT22;5283;48.876;8.962;2024-01-16T15:59:23;-3.30;99.90
10472;DHT22;5283;48.876;8.962;2024-01-16T16:01:50;-3.60;99.90
10472;DHT22;5283;48.876;8.962;2024-01-16T16:04:20;-3.50;99.90